Time;durP1;ratioP1;P1;durP2;ratioP2;P2;SDS_P1;SDS_P2;PMS_P1;PMS_P2;Temp;Humidity;BMP_temperature;BMP_pressure;BME280_temperature;BME280_humidity;BME280_pressure;Samples;Min_cycle;Max_cycle;Signal;HPM_P1;HPM_P2
2020/12/08 00:01:04;;;;;;;16.43;9.83;;;3.90;56.70;;;;;;5063511;28;39703;-80
2020/12/08 00:03:31;;;;;;;15.70;10.40;;;3.90;56.70;;;;;;5065485;28;39856;-80
2020/12/08 00:05:59;;;;;;;15.73;9.67;;;3.80;56.60;;;;;;5068721;28;39084;-80
2020/12/08 00:08:26;;;;;;;17.10;10.00;;;3.80;56.80;;;;;;5071279;28;37195;-80
2020/12/08 00:10:53;;;;;;;15.90;10.53;;;3.80;56.90;;;;;;5064264;28;38893;-80
2020/12/08 00:13:20;;;;;;;17.13;10.60;;;3.70;56.60;;;;;;5068887;28;38860;-80
2020/12/08 00:15:48;;;;;;;20.50;10.80;;;3.80;56.80;;;;;;5070680;28;37414;-80
2020/12/08 00:18:15;;;;;;;15.90;10.67;;;3.70;56.60;;;;;;5071417;28;37157;-80
2020/12/08 00:20:42;;;;;;;17.93;10.60;;;3.80;56.90;;;;;;5075327;28;40192;-80
2020/12/08 00:23:10;;;;;;;19.90;11.27;;;3.80;56.60;;;;;;5063146;28;39262;-80
2020/12/08 00:25:38;;;;;;;17.03;9.90;;;3.80;56.80;;;;;;5078913;28;38662;-80
2020/12/08 00:28:05;;;;;;;17.23;10.50;;;3.80;56.40;;;;;;5071848;28;37285;-80
2020/12/08 00:30:35;;;;;;;17.00;10.27;;;3.80;56.60;;;;;;5066817;28;40494;-80
2020/12/08 00:33:02;;;;;;;16.80;10.07;;;3.80;56.70;;;;;;5069071;28;38920;-80
2020/12/08 00:35:29;;;;;;;16.57;10.67;;;3.80;56.50;;;;;;5071240;28;36786;-80
2020/12/08 00:37:56;;;;;;;17.60;11.33;;;3.80;56.40;;;;;;5077196;28;38185;-80
2020/12/08 00:40:24;;;;;;;16.03;10.07;;;3.70;56.30;;;;;;5068571;28;36769;-80
2020/12/08 00:42:51;;;;;;;16.70;11.20;;;3.70;56.20;;;;;;5069979;28;39686;-80
2020/12/08 00:45:18;;;;;;;17.70;10.83;;;3.80;55.90;;;;;;5060917;28;38955;-80
2020/12/08 00:47:47;;;;;;;18.37;11.23;;;3.70;55.80;;;;;;5064135;28;37559;-80
2020/12/08 00:50:14;;;;;;;16.20;10.80;;;3.70;55.70;;;;;;5087162;28;39391;-79
2020/12/08 00:52:41;;;;;;;16.27;10.07;;;3.70;55.80;;;;;;5066220;28;38364;-80
2020/12/08 00:55:13;;;;;;;16.90;10.67;;;3.70;55.90;;;;;;5055848;28;37589;-79
2020/12/08 00:57:45;;;;;;;18.20;10.40;;;3.70;55.80;;;;;;5068508;28;37152;-79
2020/12/08 01:00:17;;;;;;;19.90;12.17;;;3.70;55.70;;;;;;5062578;28;40023;-79
2020/12/08 01:02:46;;;;;;;18.40;10.73;;;3.60;55.50;;;;;;5065860;28;38127;-80
2020/12/08 01:05:17;;;;;;;18.93;11.27;;;3.60;55.80;;;;;;5064254;28;38283;-80
2020/12/08 01:07:45;;;;;;;17.83;11.47;;;3.60;55.60;;;;;;5070606;28;35987;-80
2020/12/08 01:10:20;;;;;;;19.20;11.73;;;3.50;55.60;;;;;;5070623;28;39050;-79
2020/12/08 01:12:48;;;;;;;19.70;11.57;;;3.40;56.00;;;;;;5063656;28;41739;-79
2020/12/08 01:15:15;;;;;;;22.10;12.30;;;3.40;56.10;;;;;;5084313;28;37039;-79
2020/12/08 01:17:44;;;;;;;19.03;11.40;;;3.40;56.20;;;;;;5060227;28;36207;-79
2020/12/08 01:20:11;;;;;;;19.23;12.50;;;3.30;56.10;;;;;;5060893;28;39656;-79
2020/12/08 01:22:40;;;;;;;20.20;12.17;;;3.30;56.20;;;;;;5067217;28;38726;-79
2020/12/08 01:25:08;;;;;;;18.90;11.53;;;3.20;56.30;;;;;;5061987;28;36912;-79
2020/12/08 01:27:38;;;;;;;18.43;10.67;;;3.10;56.40;;;;;;5066182;28;36250;-79
2020/12/08 01:30:07;;;;;;;21.27;12.33;;;3.10;56.50;;;;;;5056087;28;39780;-79
2020/12/08 01:32:38;;;;;;;22.63;13.43;;;3.00;56.90;;;;;;5082855;28;38612;-79
2020/12/08 01:35:07;;;;;;;20.60;12.43;;;2.90;56.30;;;;;;5062915;28;38187;-79
2020/12/08 01:37:35;;;;;;;19.10;11.00;;;2.70;56.30;;;;;;5062539;28;37217;-79
2020/12/08 01:40:04;;;;;;;19.73;11.93;;;2.60;56.30;;;;;;5070266;28;40355;-80
2020/12/08 01:42:32;;;;;;;20.47;12.10;;;2.40;56.40;;;;;;5069983;28;39204;-79
2020/12/08 01:45:00;;;;;;;21.47;12.33;;;2.30;56.40;;;;;;5074166;28;38071;-79
2020/12/08 01:47:28;;;;;;;23.60;13.43;;;2.10;56.90;;;;;;5079142;28;36438;-79
2020/12/08 01:49:57;;;;;;;24.60;13.00;;;2.00;58.00;;;;;;5077169;28;41261;-80
2020/12/08 01:52:24;;;;;;;23.37;13.77;;;2.00;58.50;;;;;;5057670;28;38237;-80
2020/12/08 01:54:57;;;;;;;23.47;12.90;;;2.00;58.50;;;;;;5072284;28;36764;-79
2020/12/08 01:57:28;;;;;;;24.27;13.23;;;1.90;58.70;;;;;;5068262;28;35539;-80
2020/12/08 02:00:01;;;;;;;25.70;13.87;;;1.80;58.80;;;;;;5046601;28;39889;-80
2020/12/08 02:02:31;;;;;;;23.43;11.93;;;1.70;59.00;;;;;;5054980;28;39387;-80
2020/12/08 02:05:01;;;;;;;26.27;13.87;;;1.60;59.20;;;;;;5078198;28;36792;-80
2020/12/08 02:07:29;;;;;;;23.30;12.80;;;1.50;59.50;;;;;;5069966;28;37355;-80
2020/12/08 02:09:56;;;;;;;23.27;12.77;;;1.40;59.60;;;;;;5070818;28;39308;-79
2020/12/08 02:12:27;;;;;;;25.07;12.63;;;1.30;59.60;;;;;;5064557;28;40434;-79
2020/12/08 02:14:55;;;;;;;29.67;13.93;;;1.20;59.50;;;;;;5060556;28;39599;-79
2020/12/08 02:17:23;;;;;;;29.30;14.20;;;1.20;59.50;;;;;;5082575;28;36319;-79
2020/12/08 02:19:51;;;;;;;24.93;13.50;;;1.10;59.50;;;;;;5064779;28;39350;-79
2020/12/08 02:22:23;;;;;;;26.20;13.80;;;1.10;59.90;;;;;;5065983;28;38053;-80
2020/12/08 02:24:51;;;;;;;26.03;14.30;;;1.00;60.00;;;;;;5069227;28;38654;-80
2020/12/08 02:27:20;;;;;;;25.47;13.20;;;1.00;60.10;;;;;;5059106;28;37119;-80
2020/12/08 02:29:49;;;;;;;30.67;14.40;;;0.90;60.30;;;;;;5066454;28;20565;-80
2020/12/08 02:32:16;;;;;;;30.57;13.40;;;0.90;60.70;;;;;;5065202;28;37929;-80
2020/12/08 02:34:44;;;;;;;28.67;13.77;;;0.90;60.70;;;;;;5072886;28;38706;-80
2020/12/08 02:37:12;;;;;;;29.07;13.97;;;0.90;61.00;;;;;;5070495;28;36827;-80
2020/12/08 02:39:46;;;;;;;27.67;13.43;;;0.90;61.20;;;;;;5061776;28;38364;-80
2020/12/08 02:42:15;;;;;;;27.40;13.17;;;0.90;61.50;;;;;;5058894;28;39041;-80
2020/12/08 02:44:46;;;;;;;27.40;14.17;;;0.90;61.90;;;;;;5071089;28;36911;-80
2020/12/08 02:47:13;;;;;;;30.63;15.10;;;1.00;62.20;;;;;;5063816;28;36317;-81
2020/12/08 02:49:41;;;;;;;32.20;15.57;;;1.00;62.30;;;;;;5068622;28;38411;-80
2020/12/08 02:52:10;;;;;;;23.83;13.10;;;1.00;62.60;;;;;;5057224;28;39594;-80
2020/12/08 02:54:42;;;;;;;27.20;13.03;;;1.10;63.00;;;;;;5065920;28;36863;-80
2020/12/08 02:57:10;;;;;;;29.90;13.87;;;1.20;63.30;;;;;;5062893;28;36849;-81
2020/12/08 02:59:39;;;;;;;23.70;12.10;;;1.30;63.20;;;;;;5059855;28;38461;-80
2020/12/08 03:02:08;;;;;;;20.83;12.40;;;1.40;63.30;;;;;;5067171;28;37947;-79
2020/12/08 03:04:44;;;;;;;23.17;12.70;;;1.50;63.20;;;;;;5063484;28;37870;-80
2020/12/08 03:07:14;;;;;;;24.73;12.70;;;1.50;63.20;;;;;;5060902;28;37544;-79
2020/12/08 03:09:41;;;;;;;23.83;13.03;;;1.60;63.20;;;;;;5072754;28;38582;-80
2020/12/08 03:12:09;;;;;;;26.87;13.80;;;1.60;62.80;;;;;;5066624;28;37916;-79
2020/12/08 03:14:38;;;;;;;26.60;13.87;;;1.60;62.30;;;;;;5067521;28;38221;-80
2020/12/08 03:17:06;;;;;;;24.57;13.53;;;1.60;62.20;;;;;;5071495;28;37578;-79
2020/12/08 03:19:34;;;;;;;24.40;14.00;;;1.70;62.40;;;;;;5077307;28;38380;-79
2020/12/08 03:22:01;;;;;;;22.77;13.23;;;1.70;62.20;;;;;;5071052;28;38046;-79
2020/12/08 03:24:49;;;;;;;23.70;12.70;;;1.70;62.10;;;;;;5067424;28;38194;-79
2020/12/08 03:27:19;;;;;;;25.23;12.43;;;1.70;61.80;;;;;;5068758;28;37244;-79
2020/12/08 03:29:48;;;;;;;26.13;12.73;;;1.70;61.60;;;;;;5065173;28;38408;-80
2020/12/08 03:32:20;;;;;;;23.60;13.00;;;1.60;61.30;;;;;;5072658;28;38618;-80
2020/12/08 03:34:47;;;;;;;22.87;12.87;;;1.60;61.40;;;;;;5066311;28;36910;-80
2020/12/08 03:37:15;;;;;;;23.70;12.13;;;1.60;61.30;;;;;;5076800;28;36340;-80
2020/12/08 03:39:42;;;;;;;19.03;11.73;;;1.60;61.40;;;;;;5067767;28;38812;-80
2020/12/08 03:42:10;;;;;;;21.23;12.10;;;1.60;61.10;;;;;;5062464;28;39101;-81
2020/12/08 03:44:41;;;;;;;23.33;11.67;;;1.60;61.00;;;;;;5068108;28;38115;-78
2020/12/08 03:47:18;;;;;;;24.27;11.60;;;1.50;60.80;;;;;;5061527;28;36239;-80
2020/12/08 03:49:45;;;;;;;25.83;12.20;;;1.50;60.90;;;;;;5069175;28;39042;-79
2020/12/08 03:52:13;;;;;;;25.47;13.03;;;1.40;60.70;;;;;;5067689;28;37829;-79
2020/12/08 03:54:40;;;;;;;23.80;12.50;;;1.40;60.90;;;;;;5070006;28;36610;-79
2020/12/08 03:57:11;;;;;;;20.97;11.20;;;1.40;60.90;;;;;;5066071;28;35903;-79
2020/12/08 03:59:38;;;;;;;22.87;12.20;;;1.30;61.10;;;;;;5071063;28;39873;-79
2020/12/08 04:02:11;;;;;;;23.50;12.23;;;1.40;61.20;;;;;;5067386;28;38836;-81
2020/12/08 04:04:38;;;;;;;20.30;12.13;;;1.30;61.20;;;;;;5058475;28;37011;-81
2020/12/08 04:07:05;;;;;;;20.80;11.70;;;1.40;61.40;;;;;;5070026;28;37068;-81
2020/12/08 04:09:36;;;;;;;21.50;12.10;;;1.40;61.50;;;;;;5067621;28;37818;-81
2020/12/08 04:12:05;;;;;;;27.77;11.50;;;1.40;61.40;;;;;;5058777;28;38054;-81
2020/12/08 04:14:33;;;;;;;20.27;12.43;;;1.40;61.30;;;;;;5065230;28;36585;-79
2020/12/08 04:17:01;;;;;;;20.63;11.93;;;1.30;61.00;;;;;;5066868;28;37364;-80
2020/12/08 04:19:29;;;;;;;20.80;11.43;;;1.30;60.90;;;;;;5061624;28;38344;-80
2020/12/08 04:21:59;;;;;;;21.00;11.60;;;1.20;60.80;;;;;;5065366;28;38356;-80
2020/12/08 04:24:34;;;;;;;21.67;12.67;;;1.10;60.80;;;;;;5062548;28;37777;-79
2020/12/08 04:27:04;;;;;;;24.00;12.03;;;1.00;60.80;;;;;;5066056;28;36278;-79
2020/12/08 04:29:39;;;;;;;25.43;14.20;;;0.80;60.60;;;;;;5060686;28;38598;-79
2020/12/08 04:32:06;;;;;;;26.03;13.10;;;0.80;60.80;;;;;;5067846;28;37766;-79
2020/12/08 04:34:34;;;;;;;22.67;12.00;;;0.80;61.20;;;;;;5069343;28;38226;-79
2020/12/08 04:37:02;;;;;;;28.40;13.87;;;0.80;61.50;;;;;;5058253;28;36311;-79
2020/12/08 04:39:29;;;;;;;28.20;14.60;;;0.80;61.80;;;;;;5069876;28;38412;-79
2020/12/08 04:41:56;;;;;;;28.33;13.47;;;0.80;62.00;;;;;;5062058;28;39153;-79
2020/12/08 04:44:23;;;;;;;26.00;13.80;;;0.80;62.00;;;;;;5068866;28;37782;-79
2020/12/08 04:46:55;;;;;;;26.27;12.40;;;0.80;62.70;;;;;;5062765;28;37077;-79
2020/12/08 04:49:23;;;;;;;26.20;12.60;;;0.70;61.90;;;;;;5067346;28;39327;-79
2020/12/08 04:51:51;;;;;;;28.37;12.47;;;0.70;62.00;;;;;;5066278;28;40337;-80
2020/12/08 04:54:20;;;;;;;26.60;13.70;;;0.70;62.20;;;;;;5077039;28;38291;-80
2020/12/08 04:56:50;;;;;;;26.87;12.80;;;0.70;62.20;;;;;;5068467;28;38435;-79
2020/12/08 04:59:21;;;;;;;32.63;14.90;;;0.70;62.30;;;;;;5064085;28;39736;-79
2020/12/08 05:01:48;;;;;;;26.70;12.80;;;0.70;62.40;;;;;;5065591;28;39033;-80
2020/12/08 05:04:23;;;;;;;28.90;13.63;;;0.60;62.70;;;;;;5070524;28;36533;-82
2020/12/08 05:07:07;;;;;;;32.17;14.20;;;0.60;63.20;;;;;;5070213;28;36277;-81
2020/12/08 05:09:44;;;;;;;30.00;14.53;;;0.70;63.50;;;;;;5067018;28;39834;-80
2020/12/08 05:12:11;;;;;;;27.93;14.97;;;0.80;63.80;;;;;;5075372;28;39915;-78
2020/12/08 05:14:42;;;;;;;29.20;15.57;;;0.90;63.80;;;;;;5065920;28;37330;-79
2020/12/08 05:17:09;;;;;;;26.00;14.37;;;0.90;63.90;;;;;;5053899;28;37329;-79
2020/12/08 05:19:36;;;;;;;27.50;15.30;;;1.00;63.90;;;;;;5072692;28;39811;-78
2020/12/08 05:22:03;;;;;;;26.90;14.57;;;1.00;64.00;;;;;;5068009;28;38856;-79
2020/12/08 05:24:33;;;;;;;26.80;14.93;;;1.10;64.20;;;;;;5072447;28;37940;-80
2020/12/08 05:27:03;;;;;;;29.13;14.10;;;1.10;63.90;;;;;;5069361;28;36659;-80
2020/12/08 05:29:32;;;;;;;26.80;13.90;;;1.20;63.90;;;;;;5061909;28;39989;-80
2020/12/08 05:32:29;;;;;;;22.20;12.90;;;1.30;63.80;;;;;;5067615;28;39281;-80
2020/12/08 05:34:56;;;;;;;27.70;13.73;;;1.30;63.80;;;;;;5062428;28;37991;-80
2020/12/08 05:37:23;;;;;;;23.80;12.60;;;1.40;63.60;;;;;;5070917;28;37833;-80
2020/12/08 05:39:51;;;;;;;27.70;14.00;;;1.50;63.50;;;;;;5071702;28;39383;-80
2020/12/08 05:42:22;;;;;;;26.93;13.50;;;1.50;63.60;;;;;;5066180;28;39120;-80
2020/12/08 05:44:50;;;;;;;29.33;14.03;;;1.60;63.30;;;;;;5066999;28;38711;-80
2020/12/08 05:47:19;;;;;;;26.93;14.27;;;1.60;62.60;;;;;;5071613;28;36938;-80
2020/12/08 05:49:46;;;;;;;25.17;13.07;;;1.70;62.70;;;;;;5069333;28;39591;-80
2020/12/08 05:52:18;;;;;;;26.23;14.17;;;1.70;62.10;;;;;;5065237;28;39266;-81
2020/12/08 05:54:45;;;;;;;22.53;12.90;;;1.70;61.90;;;;;;5075618;28;38121;-81
2020/12/08 05:57:16;;;;;;;25.10;14.13;;;1.70;62.00;;;;;;5069169;28;38130;-80
2020/12/08 05:59:43;;;;;;;25.70;13.03;;;1.70;61.90;;;;;;5062486;28;39929;-80
2020/12/08 06:02:10;;;;;;;22.93;13.17;;;1.70;61.80;;;;;;5066342;28;38582;-81
2020/12/08 06:04:40;;;;;;;28.67;15.10;;;1.70;61.60;;;;;;5064269;28;38326;-81
2020/12/08 06:07:08;;;;;;;28.20;14.70;;;1.70;61.30;;;;;;5067521;28;36599;-80
2020/12/08 06:09:36;;;;;;;26.63;14.47;;;1.70;61.20;;;;;;5068447;28;38643;-81
2020/12/08 06:12:16;;;;;;;30.87;15.70;;;1.60;61.20;;;;;;5062418;28;39735;-80
2020/12/08 06:14:43;;;;;;;27.17;15.13;;;1.60;61.20;;;;;;5062158;28;38842;-81
2020/12/08 06:17:10;;;;;;;26.17;13.67;;;1.70;61.30;;;;;;5070765;28;36422;-81
2020/12/08 06:19:37;;;;;;;33.77;16.40;;;1.70;61.20;;;;;;5068683;28;38412;-80
2020/12/08 06:22:12;;;;;;;24.63;15.73;;;1.70;61.20;;;;;;5063172;28;39343;-81
2020/12/08 06:24:52;;;;;;;27.40;15.80;;;1.70;61.20;;;;;;5072311;28;38121;-80
2020/12/08 06:27:21;;;;;;;29.17;14.83;;;1.80;61.20;;;;;;5072396;28;37544;-80
2020/12/08 06:29:53;;;;;;;25.50;14.00;;;1.80;60.90;;;;;;5057176;28;39585;-80
2020/12/08 06:32:23;;;;;;;26.60;15.20;;;1.80;60.80;;;;;;5077602;28;37557;-79
2020/12/08 06:34:50;;;;;;;24.90;13.50;;;1.80;60.80;;;;;;5062321;28;37005;-80
2020/12/08 06:37:17;;;;;;;28.30;13.63;;;1.80;61.00;;;;;;4966096;28;36221;-80
2020/12/08 06:39:44;;;;;;;30.60;16.10;;;1.80;60.90;;;;;;4917392;28;40841;-80
2020/12/08 06:42:12;;;;;;;28.73;12.47;;;1.70;60.80;;;;;;5040082;28;38126;-81
2020/12/08 06:44:40;;;;;;;26.87;15.00;;;1.80;60.90;;;;;;5018303;28;39405;-80
2020/12/08 06:47:07;;;;;;;26.87;14.30;;;1.80;60.80;;;;;;5017505;28;38265;-81
2020/12/08 06:49:41;;;;;;;24.50;13.67;;;1.80;60.50;;;;;;5031186;28;39481;-80
2020/12/08 06:52:09;;;;;;;24.93;14.37;;;1.70;60.40;;;;;;5025933;28;39721;-81
2020/12/08 06:54:39;;;;;;;30.73;15.13;;;1.70;60.30;;;;;;5032638;28;38344;-80
2020/12/08 06:57:06;;;;;;;32.43;15.20;;;1.60;60.30;;;;;;5024021;28;37459;-79
2020/12/08 06:59:33;;;;;;;28.97;15.13;;;1.50;60.20;;;;;;5023907;28;38605;-79
2020/12/08 07:02:00;;;;;;;26.73;13.90;;;1.40;60.30;;;;;;5020774;28;39350;-79
2020/12/08 07:04:30;;;;;;;29.00;14.93;;;1.40;60.60;;;;;;5022141;28;38887;-80
2020/12/08 07:06:59;;;;;;;29.37;15.80;;;1.30;60.60;;;;;;5023243;28;36172;-80
2020/12/08 07:09:30;;;;;;;30.57;17.10;;;1.40;60.90;;;;;;5028576;28;39753;-80
2020/12/08 07:12:00;;;;;;;27.83;15.77;;;1.40;60.80;;;;;;5039590;28;38006;-80
2020/12/08 07:14:28;;;;;;;27.13;14.50;;;1.40;61.00;;;;;;5030742;28;37165;-80
2020/12/08 07:16:56;;;;;;;29.53;14.63;;;1.40;61.20;;;;;;5029236;28;37337;-81
2020/12/08 07:19:23;;;;;;;28.63;15.43;;;1.40;61.30;;;;;;5027266;28;37170;-80
2020/12/08 07:21:58;;;;;;;29.83;15.10;;;1.40;61.50;;;;;;5027356;28;40332;-80
2020/12/08 07:24:25;;;;;;;28.67;17.03;;;1.40;61.60;;;;;;5018723;28;37116;-79
2020/12/08 07:26:57;;;;;;;33.87;17.63;;;1.50;62.00;;;;;;5027026;28;36441;-80
2020/12/08 07:29:25;;;;;;;30.30;15.23;;;1.60;62.30;;;;;;5019852;28;40986;-80
2020/12/08 07:31:53;;;;;;;27.00;14.53;;;1.70;62.40;;;;;;5028776;28;39828;-79
2020/12/08 07:34:20;;;;;;;29.03;15.60;;;1.90;62.30;;;;;;5030107;28;38145;-80
2020/12/08 07:36:48;;;;;;;24.80;14.83;;;2.10;62.40;;;;;;5028021;28;37144;-80
2020/12/08 07:39:20;;;;;;;22.80;13.77;;;2.20;61.50;;;;;;5027223;28;39492;-80
2020/12/08 07:41:50;;;;;;;23.70;14.63;;;2.40;61.30;;;;;;5023375;28;38581;-83
2020/12/08 07:44:18;;;;;;;24.77;13.80;;;2.60;60.70;;;;;;5021575;28;39405;-80
2020/12/08 07:46:49;;;;;;;23.77;14.00;;;2.70;60.30;;;;;;5029096;28;38592;-81
2020/12/08 07:49:17;;;;;;;25.63;15.20;;;2.80;59.10;;;;;;5025749;28;39531;-81
2020/12/08 07:51:48;;;;;;;23.27;14.07;;;2.90;58.40;;;;;;5031544;28;39674;-80
2020/12/08 07:54:16;;;;;;;27.33;14.87;;;2.90;58.10;;;;;;5026018;28;38078;-82
2020/12/08 07:56:43;;;;;;;34.90;16.53;;;3.00;57.80;;;;;;5028227;28;37435;-80
2020/12/08 07:59:10;;;;;;;28.80;16.73;;;3.00;57.30;;;;;;5026652;28;40528;-80
2020/12/08 08:01:42;;;;;;;34.60;16.40;;;3.10;57.20;;;;;;5022981;28;39978;-80
2020/12/08 08:04:10;;;;;;;30.03;16.90;;;3.10;56.50;;;;;;5021493;28;39297;-79
2020/12/08 08:06:37;;;;;;;30.50;15.90;;;3.10;56.20;;;;;;5026560;28;36379;-79
2020/12/08 08:09:06;;;;;;;26.40;15.43;;;3.10;56.30;;;;;;5023150;28;39723;-79
2020/12/08 08:11:36;;;;;;;29.27;15.10;;;3.00;56.20;;;;;;5026412;28;39870;-80
2020/12/08 08:14:03;;;;;;;27.47;14.10;;;3.00;56.40;;;;;;5028127;28;36190;-79
2020/12/08 08:16:34;;;;;;;25.63;14.63;;;3.00;56.20;;;;;;5030123;28;35946;-79
2020/12/08 08:19:01;;;;;;;24.23;14.03;;;3.00;56.10;;;;;;5015121;28;39902;-79
2020/12/08 08:21:28;;;;;;;27.30;14.10;;;3.00;56.00;;;;;;5028287;28;39893;-79
2020/12/08 08:23:57;;;;;;;23.37;13.03;;;2.90;55.90;;;;;;5032922;28;37908;-79
2020/12/08 08:26:25;;;;;;;24.80;13.47;;;3.00;56.00;;;;;;5028897;28;37748;-79
2020/12/08 08:28:53;;;;;;;23.37;14.20;;;3.00;55.90;;;;;;5029152;28;38476;-79
2020/12/08 08:31:22;;;;;;;25.20;14.60;;;3.00;55.80;;;;;;5021834;28;38328;-79
2020/12/08 08:33:49;;;;;;;26.17;15.03;;;3.00;55.70;;;;;;5035530;28;37970;-79
2020/12/08 08:36:16;;;;;;;24.93;14.40;;;3.00;55.70;;;;;;5031876;28;37541;-80
2020/12/08 08:38:46;;;;;;;21.53;14.13;;;3.00;55.90;;;;;;5034857;28;40115;-79
2020/12/08 08:41:13;;;;;;;24.13;14.77;;;2.90;56.00;;;;;;5037032;28;38893;-79
2020/12/08 08:43:40;;;;;;;33.63;15.87;;;2.90;56.10;;;;;;5032954;28;37929;-79
2020/12/08 08:46:09;;;;;;;26.33;15.47;;;3.00;56.20;;;;;;5027073;28;37695;-79
2020/12/08 08:48:37;;;;;;;26.30;15.13;;;3.00;56.20;;;;;;5035358;28;39708;-79
2020/12/08 08:51:04;;;;;;;28.73;15.17;;;3.00;56.30;;;;;;5033909;28;39211;-80
2020/12/08 08:53:34;;;;;;;24.23;13.90;;;3.00;56.00;;;;;;5028351;28;38870;-80
2020/12/08 08:56:04;;;;;;;24.37;14.43;;;3.00;55.40;;;;;;5029135;28;38390;-79
2020/12/08 08:58:31;;;;;;;24.97;14.63;;;3.00;55.70;;;;;;5027030;28;40523;-80
2020/12/08 09:00:58;;;;;;;19.23;11.73;;;2.90;55.60;;;;;;5034184;28;39738;-79
2020/12/08 09:03:26;;;;;;;21.60;12.63;;;2.80;55.20;;;;;;5027895;28;37134;-79
2020/12/08 09:05:54;;;;;;;20.30;12.30;;;2.80;55.20;;;;;;5034504;28;37427;-79
2020/12/08 09:08:24;;;;;;;20.67;13.20;;;2.80;55.30;;;;;;5040539;28;39711;-80
2020/12/08 09:10:54;;;;;;;18.60;10.90;;;2.70;55.30;;;;;;5025925;28;38990;-80
2020/12/08 09:13:22;;;;;;;19.87;12.30;;;2.70;54.80;;;;;;5031774;28;38482;-81
2020/12/08 09:15:49;;;;;;;20.73;12.67;;;2.80;54.20;;;;;;5034926;28;38101;-80
2020/12/08 09:18:17;;;;;;;21.90;11.80;;;2.80;54.30;;;;;;5031642;28;39980;-82
2020/12/08 09:20:45;;;;;;;17.43;11.30;;;2.80;54.60;;;;;;5037387;28;39077;-79
2020/12/08 09:23:12;;;;;;;22.27;12.87;;;2.80;54.50;;;;;;5023993;28;37875;-80
2020/12/08 09:25:39;;;;;;;22.00;12.20;;;2.90;54.20;;;;;;5036731;28;37271;-79
2020/12/08 09:28:07;;;;;;;18.27;11.60;;;2.90;54.50;;;;;;5042157;28;39488;-81
2020/12/08 09:30:36;;;;;;;22.70;11.70;;;2.90;54.50;;;;;;5043492;28;39379;-81
2020/12/08 09:33:03;;;;;;;16.77;10.83;;;3.00;54.60;;;;;;5036611;28;36428;-81
2020/12/08 09:35:32;;;;;;;20.50;11.90;;;3.20;54.20;;;;;;5031757;28;36500;-78
2020/12/08 09:37:59;;;;;;;19.53;11.00;;;3.30;53.80;;;;;;5025867;28;38312;-80
2020/12/08 09:40:29;;;;;;;17.03;11.30;;;4.00;55.00;;;;;;5029892;28;39739;-80
2020/12/08 09:42:56;;;;;;;15.93;10.90;;;5.20;52.00;;;;;;5025174;28;39112;-82
2020/12/08 09:45:25;;;;;;;17.63;10.93;;;6.70;49.60;;;;;;5028429;28;37428;-79
2020/12/08 09:47:52;;;;;;;16.43;11.30;;;7.90;46.50;;;;;;5027841;28;40420;-80
2020/12/08 09:50:20;;;;;;;15.67;11.17;;;9.00;43.40;;;;;;5030663;28;37702;-80
2020/12/08 09:52:47;;;;;;;17.90;11.30;;;9.90;40.50;;;;;;5035385;28;38944;-81
2020/12/08 09:55:18;;;;;;;14.23;10.60;;;10.40;38.20;;;;;;5038249;28;37823;-80
2020/12/08 09:57:47;;;;;;;19.43;12.30;;;10.70;37.10;;;;;;5033238;28;40025;-80
2020/12/08 10:00:15;;;;;;;16.50;11.73;;;10.70;36.40;;;;;;5031174;28;40087;-80
2020/12/08 10:02:42;;;;;;;15.40;11.97;;;10.70;36.20;;;;;;5027986;28;37912;-80
2020/12/08 10:05:10;;;;;;;14.70;11.50;;;10.70;36.70;;;;;;5031803;28;36209;-82
2020/12/08 10:07:37;;;;;;;15.07;11.43;;;10.70;36.40;;;;;;5022384;28;40394;-81
2020/12/08 10:10:06;;;;;;;16.77;12.03;;;10.40;36.20;;;;;;5022548;28;39056;-82
2020/12/08 10:12:34;;;;;;;16.80;11.83;;;10.00;37.00;;;;;;5026566;28;38914;-82
2020/12/08 10:15:01;;;;;;;16.10;11.67;;;9.80;38.00;;;;;;5026955;28;36120;-80
2020/12/08 10:17:29;;;;;;;17.20;11.93;;;9.70;38.30;;;;;;5030491;28;39979;-80
2020/12/08 10:19:56;;;;;;;14.87;11.53;;;9.50;38.30;;;;;;5028235;28;40006;-81
2020/12/08 10:22:23;;;;;;;15.70;10.57;;;9.00;38.50;;;;;;5023971;28;37034;-80
2020/12/08 10:24:50;;;;;;;15.37;11.53;;;8.60;39.70;;;;;;5020661;28;37606;-81
2020/12/08 10:27:17;;;;;;;15.50;11.27;;;8.50;40.00;;;;;;5034625;28;39663;-80
2020/12/08 10:29:45;;;;;;;16.60;11.23;;;8.50;40.00;;;;;;5030268;28;39035;-81
2020/12/08 10:32:15;;;;;;;15.83;11.50;;;8.40;39.90;;;;;;5031168;28;38393;-80
2020/12/08 10:34:43;;;;;;;15.57;11.30;;;8.10;40.50;;;;;;5023801;28;36959;-80
2020/12/08 10:37:11;;;;;;;15.97;11.13;;;7.80;41.20;;;;;;5029158;28;40452;-79
2020/12/08 10:39:38;;;;;;;15.93;11.17;;;7.60;41.20;;;;;;5018402;28;39323;-79
2020/12/08 10:42:06;;;;;;;17.47;11.13;;;7.30;41.60;;;;;;5029216;28;37787;-81
2020/12/08 10:44:33;;;;;;;15.53;10.90;;;7.10;42.20;;;;;;5027499;28;37227;-79
2020/12/08 10:47:02;;;;;;;13.93;9.97;;;6.90;42.30;;;;;;5030154;28;39502;-79
2020/12/08 10:49:29;;;;;;;15.67;10.70;;;6.70;42.80;;;;;;5031675;28;39125;-80
2020/12/08 10:51:57;;;;;;;17.13;10.73;;;6.60;42.80;;;;;;5028573;28;38192;-79
2020/12/08 10:54:24;;;;;;;14.93;9.90;;;6.60;43.40;;;;;;5025527;28;37229;-79
2020/12/08 10:56:52;;;;;;;17.10;10.97;;;6.50;43.20;;;;;;5025027;28;39371;-80
2020/12/08 10:59:20;;;;;;;13.60;9.40;;;6.50;43.40;;;;;;5029836;28;39786;-80
2020/12/08 11:01:48;;;;;;;13.67;9.47;;;6.40;44.00;;;;;;5007338;28;38106;-79
2020/12/08 11:04:16;;;;;;;17.83;9.80;;;6.40;43.60;;;;;;5025008;28;37572;-80
2020/12/08 11:06:47;;;;;;;15.37;10.77;;;6.40;43.70;;;;;;5028703;28;39908;-80
2020/12/08 11:09:14;;;;;;;16.33;10.20;;;6.50;44.00;;;;;;5021350;28;39043;-79
2020/12/08 11:11:42;;;;;;;23.47;11.73;;;6.60;43.90;;;;;;5019671;28;38713;-80
2020/12/08 11:14:09;;;;;;;17.97;10.40;;;6.60;43.70;;;;;;5026231;28;37617;-80
2020/12/08 11:16:41;;;;;;;14.50;9.90;;;6.60;43.70;;;;;;5024577;28;39869;-80
2020/12/08 11:19:09;;;;;;;13.83;9.67;;;6.70;43.80;;;;;;5025317;28;39198;-80
2020/12/08 11:21:39;;;;;;;17.27;10.70;;;6.70;43.30;;;;;;5026549;28;38599;-80
2020/12/08 11:24:08;;;;;;;16.10;9.50;;;6.70;43.70;;;;;;5017409;28;36776;-81
2020/12/08 11:26:36;;;;;;;17.53;10.50;;;6.70;43.40;;;;;;5018961;28;38073;-80
2020/12/08 11:29:05;;;;;;;15.10;9.43;;;6.80;43.50;;;;;;5021198;28;40045;-80
2020/12/08 11:31:32;;;;;;;13.93;10.17;;;6.80;43.60;;;;;;5024504;28;39022;-80
2020/12/08 11:34:00;;;;;;;16.40;10.80;;;6.70;43.50;;;;;;5023567;28;38296;-80
2020/12/08 11:36:27;;;;;;;16.27;10.10;;;6.60;43.80;;;;;;5022811;28;40358;-81
2020/12/08 11:38:55;;;;;;;23.03;10.10;;;6.60;43.80;;;;;;5032634;28;39212;-80
2020/12/08 11:41:22;;;;;;;19.10;10.47;;;6.50;44.30;;;;;;5024936;28;38998;-80
2020/12/08 11:43:51;;;;;;;16.40;11.10;;;6.50;44.10;;;;;;5030368;28;37602;-80
2020/12/08 11:46:21;;;;;;;13.93;9.93;;;6.50;43.90;;;;;;5029310;28;39822;-79
2020/12/08 11:48:48;;;;;;;19.60;11.23;;;6.40;44.20;;;;;;5024593;28;38867;-79
2020/12/08 11:51:17;;;;;;;15.10;9.77;;;6.40;44.40;;;;;;5029211;28;38938;-80
2020/12/08 11:53:44;;;;;;;18.00;10.80;;;6.30;44.60;;;;;;5009632;28;36262;-79
2020/12/08 11:56:12;;;;;;;16.30;10.40;;;6.30;44.90;;;;;;5019664;28;39276;-79
2020/12/08 11:58:42;;;;;;;14.63;10.27;;;6.30;44.90;;;;;;5025413;28;38872;-79
2020/12/08 12:01:09;;;;;;;17.13;10.47;;;6.20;44.10;;;;;;5027986;28;36246;-80
2020/12/08 12:03:38;;;;;;;15.87;9.93;;;6.10;44.70;;;;;;5034171;28;38210;-78
2020/12/08 12:06:05;;;;;;;12.27;9.03;;;6.00;44.40;;;;;;5025216;28;39771;-79
2020/12/08 12:08:33;;;;;;;16.60;10.53;;;6.00;44.70;;;;;;5027993;28;39160;-78
2020/12/08 12:11:02;;;;;;;18.83;11.73;;;5.90;44.90;;;;;;5025806;28;37190;-79
2020/12/08 12:13:33;;;;;;;17.60;10.67;;;5.80;45.20;;;;;;5019070;28;37460;-80
2020/12/08 12:16:00;;;;;;;17.23;10.33;;;5.70;45.50;;;;;;5022502;28;39379;-80
2020/12/08 12:18:28;;;;;;;16.50;10.97;;;5.60;45.50;;;;;;5025855;28;38934;-79
2020/12/08 12:20:55;;;;;;;16.63;10.37;;;5.40;45.70;;;;;;5029885;28;38292;-79
2020/12/08 12:23:23;;;;;;;16.43;10.40;;;5.40;46.20;;;;;;5033413;28;36664;-79
2020/12/08 12:25:50;;;;;;;16.47;10.03;;;5.20;46.00;;;;;;5026516;28;38457;-79
2020/12/08 12:28:17;;;;;;;14.00;8.77;;;5.20;46.30;;;;;;5024815;28;39887;-79
2020/12/08 12:30:48;;;;;;;13.97;8.77;;;5.10;45.90;;;;;;5030757;28;37782;-79
2020/12/08 12:33:15;;;;;;;15.67;8.93;;;5.10;46.50;;;;;;5026510;28;38482;-81
2020/12/08 12:35:42;;;;;;;16.23;10.10;;;5.00;46.60;;;;;;5032333;28;39621;-79
2020/12/08 12:38:09;;;;;;;15.80;10.43;;;5.00;46.90;;;;;;5031633;28;39178;-79
2020/12/08 12:40:36;;;;;;;15.13;9.53;;;5.00;46.80;;;;;;5034235;28;38086;-79
2020/12/08 12:43:03;;;;;;;13.27;9.23;;;5.00;46.90;;;;;;5032599;28;37371;-79
2020/12/08 12:45:31;;;;;;;17.80;9.20;;;5.00;46.90;;;;;;5030807;28;39557;-79